createdAt,value
2017-12-29T00:00:35.018Z,77.50
2017-12-29T00:03:03.835Z,77.40
2017-12-29T00:05:32.382Z,77.60
2017-12-29T00:07:59.970Z,77.60
2017-12-29T00:10:27.585Z,77.60
2017-12-29T00:12:55.163Z,77.50
2017-12-29T00:15:22.828Z,77.50
2017-12-29T00:17:51.246Z,77.80
2017-12-29T00:20:19.003Z,77.50
2017-12-29T00:22:46.613Z,77.20
2017-12-29T00:25:14.195Z,76.70
2017-12-29T00:27:41.798Z,76.60
2017-12-29T00:30:09.402Z,77.00
2017-12-29T00:32:37.153Z,76.50
2017-12-29T00:35:05.858Z,76.20
2017-12-29T00:37:33.963Z,76.80
2017-12-29T00:40:01.776Z,77.00
2017-12-29T00:42:29.351Z,76.60
2017-12-29T00:44:56.950Z,76.00
2017-12-29T00:47:24.533Z,76.00
2017-12-29T00:49:52.142Z,76.10
2017-12-29T00:52:19.720Z,76.00
2017-12-29T00:54:47.362Z,76.10
2017-12-29T00:57:15.713Z,76.50
2017-12-29T00:59:44.393Z,76.50
2017-12-29T01:02:11.999Z,76.40
2017-12-29T01:04:39.593Z,76.10
2017-12-29T01:07:07.486Z,76.50
2017-12-29T01:09:35.066Z,76.30
2017-12-29T01:12:04.221Z,76.30
2017-12-29T01:14:31.836Z,75.70
2017-12-29T01:17:00.354Z,75.90
2017-12-29T01:19:27.954Z,75.90
2017-12-29T01:21:55.542Z,76.30
2017-12-29T01:24:23.242Z,76.30
2017-12-29T01:26:51.025Z,76.30
2017-12-29T01:29:18.606Z,76.10
2017-12-29T01:31:46.250Z,75.60
2017-12-29T01:34:13.835Z,76.00
2017-12-29T01:36:41.457Z,75.80
2017-12-29T01:39:09.807Z,76.10
2017-12-29T01:41:38.010Z,76.10
2017-12-29T01:44:05.580Z,76.30
2017-12-29T01:46:34.154Z,76.20
2017-12-29T01:49:02.521Z,76.60
2017-12-29T01:51:30.272Z,76.60
2017-12-29T01:53:57.886Z,76.80
2017-12-29T01:56:25.462Z,76.70
2017-12-29T01:58:53.065Z,76.50
2017-12-29T02:01:20.641Z,77.10
2017-12-29T02:03:48.227Z,77.30
2017-12-29T02:06:15.852Z,77.10
2017-12-29T02:08:43.429Z,77.10
2017-12-29T02:11:11.081Z,77.30
2017-12-29T02:13:38.659Z,77.40
2017-12-29T02:16:06.287Z,77.30
2017-12-29T02:18:34.873Z,77.50
2017-12-29T02:21:04.482Z,77.70
2017-12-29T02:23:32.088Z,77.50
2017-12-29T02:25:59.853Z,77.80
2017-12-29T02:28:28.220Z,77.80
2017-12-29T02:30:56.877Z,77.80
2017-12-29T02:33:24.463Z,77.20
2017-12-29T02:35:52.101Z,77.40
2017-12-29T02:38:19.668Z,77.20
2017-12-29T02:40:47.304Z,77.40
2017-12-29T02:43:15.642Z,77.80
2017-12-29T02:45:43.311Z,77.80
2017-12-29T02:48:10.883Z,77.60
2017-12-29T02:50:39.264Z,77.30
2017-12-29T02:53:06.869Z,77.30
2017-12-29T02:55:35.399Z,77.00
2017-12-29T02:58:03.004Z,77.00
2017-12-29T03:00:30.616Z,76.80
2017-12-29T03:02:58.995Z,77.10
2017-12-29T03:05:26.769Z,76.90
2017-12-29T03:07:54.345Z,77.50
2017-12-29T03:10:22.018Z,77.40
2017-12-29T03:12:51.177Z,77.80
2017-12-29T03:15:18.774Z,77.80
2017-12-29T03:17:46.353Z,78.10
2017-12-29T03:20:14.006Z,78.30
2017-12-29T03:22:42.350Z,78.50
2017-12-29T03:25:10.121Z,78.50
2017-12-29T03:27:37.726Z,78.40
2017-12-29T03:30:05.327Z,78.50
2017-12-29T03:32:32.968Z,78.60
2017-12-29T03:35:00.556Z,79.00
2017-12-29T03:37:28.169Z,79.00
2017-12-29T03:39:55.774Z,79.00
2017-12-29T03:42:23.376Z,79.10
2017-12-29T03:44:51.010Z,79.30
2017-12-29T03:47:18.584Z,79.00
2017-12-29T03:49:47.232Z,79.30
2017-12-29T03:52:14.801Z,79.30
2017-12-29T03:54:42.402Z,79.50
2017-12-29T03:57:09.977Z,79.20
2017-12-29T03:59:37.571Z,79.20
2017-12-29T04:02:05.262Z,79.50
2017-12-29T04:04:33.516Z,79.50
2017-12-29T04:07:01.892Z,79.80
2017-12-29T04:09:30.549Z,79.80
2017-12-29T04:11:58.166Z,79.40
2017-12-29T04:14:25.736Z,79.40
2017-12-29T04:16:53.318Z,79.20
2017-12-29T04:19:20.922Z,79.10
2017-12-29T04:21:48.492Z,79.20
2017-12-29T04:24:16.100Z,79.10
2017-12-29T04:26:43.679Z,78.20
2017-12-29T04:29:11.469Z,78.40
2017-12-29T04:31:39.059Z,78.60
2017-12-29T04:34:07.542Z,78.10
2017-12-29T04:36:35.151Z,78.10
2017-12-29T04:39:03.454Z,78.10
2017-12-29T04:41:31.062Z,77.80
2017-12-29T04:43:59.454Z,77.20
2017-12-29T04:46:27.060Z,77.20
2017-12-29T04:48:55.608Z,77.20
2017-12-29T04:51:23.174Z,77.20
2017-12-29T04:53:51.702Z,77.10
2017-12-29T04:56:19.317Z,77.00
2017-12-29T04:58:47.030Z,77.10
2017-12-29T05:01:14.602Z,77.10
2017-12-29T05:03:42.214Z,77.00
2017-12-29T05:06:09.810Z,76.60
2017-12-29T05:08:37.410Z,76.70
2017-12-29T05:11:06.291Z,76.50
2017-12-29T05:13:34.783Z,76.70
2017-12-29T05:16:02.394Z,77.10
2017-12-29T05:18:29.991Z,77.10
2017-12-29T05:20:57.570Z,77.10
2017-12-29T05:23:25.250Z,77.20
2017-12-29T05:25:52.826Z,76.90
2017-12-29T05:28:20.470Z,77.20
2017-12-29T05:30:48.818Z,77.80
2017-12-29T05:33:16.703Z,77.10
2017-12-29T05:35:44.264Z,77.20
2017-12-29T05:38:11.850Z,77.20
2017-12-29T05:40:39.440Z,77.10
2017-12-29T05:43:07.018Z,77.20
2017-12-29T05:45:35.686Z,77.40
2017-12-29T05:48:05.158Z,77.50
2017-12-29T05:50:33.502Z,77.40
2017-12-29T05:53:01.173Z,77.80
2017-12-29T05:55:29.517Z,78.00
2017-12-29T05:57:58.334Z,77.90
2017-12-29T06:00:25.910Z,77.50
2017-12-29T06:02:53.515Z,77.70
2017-12-29T06:05:21.107Z,77.80
2017-12-29T06:07:48.713Z,78.30
2017-12-29T06:10:16.293Z,78.30
2017-12-29T06:12:43.863Z,78.70
2017-12-29T06:15:11.461Z,78.80
2017-12-29T06:17:39.046Z,78.90
2017-12-29T06:20:06.666Z,79.40
2017-12-29T06:22:35.613Z,79.80
2017-12-29T06:25:04.206Z,80.20
2017-12-29T06:27:34.282Z,80.90
2017-12-29T06:30:01.916Z,80.80
2017-12-29T06:32:29.690Z,81.10
2017-12-29T06:34:57.261Z,81.20
2017-12-29T06:37:24.910Z,81.20
2017-12-29T06:39:53.254Z,81.90
2017-12-29T06:42:21.162Z,81.40
2017-12-29T06:44:48.740Z,81.70
2017-12-29T06:47:16.317Z,82.10
2017-12-29T06:49:43.926Z,81.90
2017-12-29T06:52:12.444Z,81.00
2017-12-29T06:54:40.814Z,80.50
2017-12-29T06:57:08.551Z,80.30
2017-12-29T06:59:36.165Z,80.00
2017-12-29T07:02:04.281Z,80.20
2017-12-29T07:04:31.852Z,80.20
2017-12-29T07:06:59.649Z,80.10
2017-12-29T07:09:27.244Z,79.40
2017-12-29T07:11:55.807Z,79.00
2017-12-29T07:14:23.389Z,79.00
2017-12-29T07:16:51.824Z,78.90
2017-12-29T07:19:20.680Z,79.50
2017-12-29T07:21:48.305Z,78.80
2017-12-29T07:24:15.914Z,78.70
2017-12-29T07:26:43.534Z,78.60
2017-12-29T07:29:11.147Z,78.80
2017-12-29T07:31:38.749Z,79.00
2017-12-29T07:34:06.344Z,78.80
2017-12-29T07:36:33.995Z,78.60
2017-12-29T07:39:02.342Z,78.60
2017-12-29T07:41:30.259Z,78.60
2017-12-29T07:43:57.851Z,78.80
2017-12-29T07:46:26.286Z,78.70
2017-12-29T07:48:53.877Z,78.70
2017-12-29T07:51:22.327Z,79.40
2017-12-29T07:53:49.942Z,79.40
2017-12-29T07:56:17.529Z,79.30
2017-12-29T07:58:45.146Z,79.20
2017-12-29T08:01:12.732Z,79.20
2017-12-29T08:03:40.309Z,79.20
2017-12-29T08:06:07.914Z,79.20
2017-12-29T08:08:35.510Z,78.90
2017-12-29T08:11:04.250Z,78.70
2017-12-29T08:13:31.831Z,78.70
2017-12-29T08:15:59.418Z,78.20
2017-12-29T08:18:27.018Z,78.40
2017-12-29T08:20:54.597Z,78.10
2017-12-29T08:23:22.986Z,78.40
2017-12-29T08:25:50.566Z,78.40
2017-12-29T08:28:18.178Z,77.90
2017-12-29T08:30:45.762Z,78.20
2017-12-29T08:33:13.337Z,78.10
2017-12-29T08:35:40.945Z,78.40
2017-12-29T08:38:08.525Z,78.60
2017-12-29T08:40:36.130Z,78.10
2017-12-29T08:43:04.609Z,78.60
2017-12-29T08:45:32.180Z,78.10
2017-12-29T08:47:59.805Z,77.90
2017-12-29T08:50:27.403Z,78.00
2017-12-29T08:52:55.011Z,77.40
2017-12-29T08:55:22.581Z,77.20
2017-12-29T08:57:50.958Z,76.80
2017-12-29T09:00:18.524Z,76.80
2017-12-29T09:02:46.101Z,76.80
2017-12-29T09:05:13.708Z,77.10
2017-12-29T09:07:42.063Z,76.50
2017-12-29T09:10:09.675Z,76.50
2017-12-29T09:12:37.291Z,76.80
2017-12-29T09:15:05.562Z,76.30
2017-12-29T09:17:34.137Z,76.40
2017-12-29T09:20:01.723Z,76.30
2017-12-29T09:22:29.325Z,76.40
2017-12-29T09:24:56.898Z,76.40
2017-12-29T09:27:25.332Z,76.00
2017-12-29T09:29:52.877Z,76.70
2017-12-29T09:32:20.445Z,75.80
2017-12-29T09:34:48.823Z,76.10
2017-12-29T09:37:16.455Z,76.10
2017-12-29T09:39:44.045Z,75.80
2017-12-29T09:42:11.694Z,75.70
2017-12-29T09:44:39.280Z,75.10
2017-12-29T09:47:07.626Z,75.20
2017-12-29T09:49:35.404Z,75.20
2017-12-29T09:52:03.910Z,75.10
2017-12-29T09:54:31.495Z,75.00
2017-12-29T09:56:59.163Z,74.90
2017-12-29T09:59:26.742Z,75.10
2017-12-29T10:01:55.117Z,75.10
2017-12-29T10:04:23.701Z,75.80
2017-12-29T10:06:52.744Z,75.90
2017-12-29T10:09:20.574Z,75.80
2017-12-29T10:11:48.159Z,75.10
2017-12-29T10:14:15.792Z,75.60
2017-12-29T10:16:43.459Z,75.00
2017-12-29T10:19:11.086Z,75.00
2017-12-29T10:21:38.702Z,74.70
2017-12-29T10:24:07.141Z,75.60
2017-12-29T10:26:36.152Z,75.50
2017-12-29T10:29:05.525Z,75.40
2017-12-29T10:31:33.931Z,74.90
2017-12-29T10:34:01.522Z,75.00
2017-12-29T10:36:29.138Z,75.50
2017-12-29T10:38:56.775Z,75.50
2017-12-29T10:41:24.349Z,74.70
2017-12-29T10:43:51.966Z,75.00
2017-12-29T10:46:19.550Z,75.10
2017-12-29T10:48:47.165Z,75.20
2017-12-29T10:51:15.014Z,75.00
2017-12-29T10:53:42.612Z,74.60
2017-12-29T10:56:10.192Z,74.60
2017-12-29T10:58:37.777Z,75.40
2017-12-29T11:01:05.414Z,74.70
2017-12-29T11:03:42.648Z,75.10
2017-12-29T11:06:10.253Z,75.00
2017-12-29T11:08:37.932Z,73.90
2017-12-29T11:11:05.544Z,74.40
2017-12-29T11:13:33.770Z,74.20
2017-12-29T11:16:01.354Z,74.10
2017-12-29T11:18:28.965Z,73.60
2017-12-29T11:20:57.301Z,72.70
2017-12-29T11:23:24.920Z,71.90
2017-12-29T11:25:52.500Z,72.20
2017-12-29T11:28:20.108Z,72.60
2017-12-29T11:30:47.692Z,72.30
2017-12-29T11:33:15.256Z,71.90
2017-12-29T11:35:42.884Z,72.90
2017-12-29T11:38:10.474Z,73.10
2017-12-29T11:40:38.847Z,72.30
2017-12-29T11:43:06.425Z,72.20
2017-12-29T11:45:34.038Z,72.60
2017-12-29T11:48:04.292Z,72.20
2017-12-29T11:50:31.878Z,72.60
2017-12-29T11:52:59.494Z,71.80
2017-12-29T11:55:27.079Z,71.90
2017-12-29T11:57:54.693Z,71.40
2017-12-29T12:00:23.056Z,70.30
2017-12-29T12:02:51.402Z,71.00
2017-12-29T12:05:19.010Z,71.80
2017-12-29T12:07:47.365Z,70.30
2017-12-29T12:10:14.993Z,70.70
2017-12-29T12:12:42.573Z,69.80
2017-12-29T12:15:10.182Z,69.60
2017-12-29T12:17:37.782Z,71.00
2017-12-29T12:20:05.363Z,69.30
2017-12-29T12:22:34.564Z,70.20
2017-12-29T12:25:02.140Z,69.50
2017-12-29T12:27:29.795Z,67.70
2017-12-29T12:29:57.388Z,67.00
2017-12-29T12:32:25.008Z,67.10
2017-12-29T12:34:52.590Z,68.00
2017-12-29T12:37:20.294Z,68.40
2017-12-29T12:39:47.966Z,68.10
2017-12-29T12:42:15.650Z,69.00
2017-12-29T12:44:43.368Z,69.30
2017-12-29T12:47:10.953Z,70.10
2017-12-29T12:49:38.748Z,69.60
2017-12-29T12:52:06.316Z,69.30
2017-12-29T12:54:33.957Z,67.70
2017-12-29T12:57:01.585Z,67.60
2017-12-29T12:59:29.160Z,68.10
2017-12-29T13:01:57.904Z,68.00
2017-12-29T13:04:25.529Z,68.40
2017-12-29T13:06:53.186Z,68.00
2017-12-29T13:09:20.769Z,67.70
2017-12-29T13:11:48.337Z,68.00
2017-12-29T13:14:15.957Z,68.00
2017-12-29T13:16:44.325Z,69.50
2017-12-29T13:19:11.924Z,69.50
2017-12-29T13:21:39.506Z,69.10
2017-12-29T13:24:07.125Z,69.60
2017-12-29T13:26:36.000Z,69.70
2017-12-29T13:29:04.278Z,69.80
2017-12-29T13:31:35.126Z,69.10
2017-12-29T13:34:03.553Z,69.40
2017-12-29T13:36:31.455Z,69.40
2017-12-29T13:38:59.027Z,69.40
2017-12-29T13:41:26.631Z,69.10
2017-12-29T13:43:54.210Z,69.10
2017-12-29T13:46:21.779Z,69.30
2017-12-29T13:48:50.150Z,68.90
2017-12-29T13:51:17.725Z,68.90
2017-12-29T13:53:45.335Z,68.80
2017-12-29T13:56:14.807Z,69.40
2017-12-29T13:58:42.417Z,69.00
2017-12-29T14:01:10.004Z,69.30
2017-12-29T14:03:37.572Z,69.10
2017-12-29T14:06:05.169Z,69.60
2017-12-29T14:08:33.865Z,69.70
2017-12-29T14:11:01.470Z,69.50
2017-12-29T14:13:29.053Z,69.70
2017-12-29T14:15:56.661Z,70.20
2017-12-29T14:18:24.242Z,70.00
2017-12-29T14:20:51.823Z,70.30
2017-12-29T14:23:19.435Z,70.40
2017-12-29T14:25:47.020Z,70.50
2017-12-29T14:28:14.634Z,71.00
2017-12-29T14:30:42.214Z,71.90
2017-12-29T14:33:09.825Z,72.90
2017-12-29T14:35:38.169Z,73.30
2017-12-29T14:38:05.782Z,73.30
2017-12-29T14:40:35.762Z,73.40
2017-12-29T14:43:04.602Z,73.80
2017-12-29T14:45:32.216Z,73.80
2017-12-29T14:48:00.709Z,73.90
2017-12-29T14:50:28.386Z,74.30
2017-12-29T14:52:55.966Z,74.70
2017-12-29T14:55:23.595Z,75.00
2017-12-29T14:57:51.174Z,75.10
2017-12-29T15:00:18.746Z,75.80
2017-12-29T15:02:46.350Z,75.70
2017-12-29T15:05:13.934Z,75.60
2017-12-29T15:07:41.547Z,75.70
2017-12-29T15:10:09.130Z,75.90
2017-12-29T15:12:36.744Z,75.50
2017-12-29T15:15:05.098Z,74.60
2017-12-29T15:17:34.461Z,75.00
2017-12-29T15:20:02.066Z,75.00
2017-12-29T15:22:29.647Z,75.10
2017-12-29T15:24:57.263Z,74.70
2017-12-29T15:27:25.617Z,75.20
2017-12-29T15:29:53.257Z,74.70
2017-12-29T15:32:21.601Z,74.80
2017-12-29T15:34:49.196Z,74.80
2017-12-29T15:37:16.805Z,74.50
2017-12-29T15:39:48.580Z,74.60
2017-12-29T15:42:16.965Z,75.00
2017-12-29T15:44:44.541Z,74.90
2017-12-29T15:47:12.141Z,75.00
2017-12-29T15:49:39.726Z,75.30
2017-12-29T15:52:07.325Z,75.30
2017-12-29T15:54:35.660Z,75.50
2017-12-29T15:57:04.319Z,75.50
2017-12-29T15:59:31.905Z,75.80
2017-12-29T16:02:00.419Z,76.00
2017-12-29T16:04:32.495Z,76.00
2017-12-29T16:07:00.103Z,76.10
2017-12-29T16:09:27.680Z,75.80
2017-12-29T16:11:55.290Z,76.20
2017-12-29T16:14:22.867Z,76.00
2017-12-29T16:16:50.462Z,76.30
2017-12-29T16:19:18.073Z,75.80
2017-12-29T16:21:45.640Z,75.60
2017-12-29T16:24:13.249Z,75.90
2017-12-29T16:26:40.834Z,76.00
2017-12-29T16:29:08.432Z,76.30
2017-12-29T16:31:36.028Z,77.00
2017-12-29T16:34:04.826Z,76.70
2017-12-29T16:36:32.416Z,77.00
2017-12-29T16:39:00.004Z,77.50
2017-12-29T16:41:27.617Z,77.60
2017-12-29T16:43:55.194Z,77.40
2017-12-29T16:46:22.810Z,77.50
2017-12-29T16:48:50.398Z,78.00
2017-12-29T16:51:18.796Z,78.50
2017-12-29T16:53:46.372Z,78.40
2017-12-29T16:56:14.726Z,79.00
2017-12-29T16:58:42.353Z,78.40
2017-12-29T17:01:09.934Z,78.50
2017-12-29T17:03:37.554Z,78.70
2017-12-29T17:06:05.902Z,79.50
2017-12-29T17:08:34.772Z,79.40
2017-12-29T17:11:04.203Z,79.80
2017-12-29T17:13:32.554Z,79.50
2017-12-29T17:16:00.926Z,79.10
2017-12-29T17:18:29.266Z,79.10
2017-12-29T17:20:56.886Z,79.10
2017-12-29T17:23:24.456Z,79.10
2017-12-29T17:25:52.038Z,80.10
2017-12-29T17:28:19.646Z,80.70
2017-12-29T17:30:47.228Z,81.60
2017-12-29T17:33:14.834Z,80.90
2017-12-29T17:35:42.430Z,81.00
2017-12-29T17:38:10.796Z,81.30
2017-12-29T17:40:38.378Z,81.30
2017-12-29T17:43:05.958Z,81.50
2017-12-29T17:45:35.597Z,82.60
2017-12-29T17:48:04.196Z,81.80
2017-12-29T17:50:31.805Z,82.00
2017-12-29T17:52:59.391Z,82.40
2017-12-29T17:55:27.011Z,82.20
2017-12-29T17:57:54.601Z,82.40
2017-12-29T18:00:22.185Z,82.60
2017-12-29T18:02:51.413Z,82.30
2017-12-29T18:05:18.988Z,82.20
2017-12-29T18:07:46.646Z,82.10
2017-12-29T18:10:14.234Z,82.00
2017-12-29T18:12:41.851Z,81.80
2017-12-29T18:15:09.434Z,81.70
2017-12-29T18:17:37.022Z,81.80
2017-12-29T18:20:05.938Z,81.90
2017-12-29T18:22:34.950Z,82.00
2017-12-29T18:25:02.556Z,81.90
2017-12-29T18:27:30.138Z,82.00
2017-12-29T18:29:57.712Z,82.30
2017-12-29T18:32:25.335Z,82.40
2017-12-29T18:34:52.927Z,82.50
2017-12-29T18:37:20.542Z,82.50
2017-12-29T18:39:48.124Z,82.40
2017-12-29T18:42:16.478Z,82.10
2017-12-29T18:44:44.094Z,82.10
2017-12-29T18:47:11.710Z,82.30
2017-12-29T18:49:40.405Z,82.60
2017-12-29T18:52:08.059Z,82.40
2017-12-29T18:54:35.684Z,82.10
2017-12-29T18:57:04.043Z,82.50
2017-12-29T18:59:31.626Z,82.30
2017-12-29T19:01:59.265Z,82.70
2017-12-29T19:04:26.862Z,82.80
2017-12-29T19:07:00.310Z,82.70
2017-12-29T19:09:27.893Z,82.70
2017-12-29T19:11:55.521Z,82.60
2017-12-29T19:14:23.106Z,82.60
2017-12-29T19:16:50.684Z,82.90
2017-12-29T19:19:18.307Z,83.00
2017-12-29T19:21:45.900Z,83.30
2017-12-29T19:24:14.274Z,83.30
2017-12-29T19:26:42.125Z,83.30
2017-12-29T19:29:09.756Z,83.00
2017-12-29T19:31:37.347Z,83.00
2017-12-29T19:34:05.862Z,83.10
2017-12-29T19:36:34.812Z,83.10
2017-12-29T19:39:02.397Z,84.20
2017-12-29T19:41:30.766Z,83.30
2017-12-29T19:43:58.349Z,83.20
2017-12-29T19:46:25.969Z,83.20
2017-12-29T19:48:54.308Z,83.00
2017-12-29T19:51:21.896Z,83.00
2017-12-29T19:53:49.507Z,83.30
2017-12-29T19:56:17.095Z,83.30
2017-12-29T19:58:44.707Z,83.30
2017-12-29T20:01:13.055Z,83.50
2017-12-29T20:03:40.684Z,83.40
2017-12-29T20:06:08.270Z,83.30
2017-12-29T20:08:35.884Z,83.90
2017-12-29T20:11:04.596Z,83.60
2017-12-29T20:13:32.959Z,83.50
2017-12-29T20:16:00.561Z,83.50
2017-12-29T20:18:28.136Z,83.20
2017-12-29T20:20:55.737Z,83.20
2017-12-29T20:23:23.314Z,83.40
2017-12-29T20:25:50.907Z,84.30
2017-12-29T20:28:18.532Z,83.30
2017-12-29T20:30:46.949Z,83.50
2017-12-29T20:33:15.338Z,83.50
2017-12-29T20:35:43.174Z,83.40
2017-12-29T20:38:10.803Z,83.40
2017-12-29T20:40:38.384Z,83.80
2017-12-29T20:43:05.981Z,83.60
2017-12-29T20:45:35.184Z,83.90
2017-12-29T20:48:03.467Z,83.90
2017-12-29T20:50:31.838Z,84.20
2017-12-29T20:52:59.431Z,84.20
2017-12-29T20:55:27.061Z,83.80
2017-12-29T20:57:54.651Z,83.80
2017-12-29T21:00:22.243Z,83.80
2017-12-29T21:02:49.846Z,83.20
2017-12-29T21:05:17.455Z,82.90
2017-12-29T21:07:45.195Z,82.30
2017-12-29T21:10:12.780Z,82.30
2017-12-29T21:12:40.418Z,81.90
2017-12-29T21:15:08.029Z,81.50
2017-12-29T21:17:35.608Z,81.00
2017-12-29T21:20:04.169Z,81.10
2017-12-29T21:22:31.750Z,80.70
2017-12-29T21:24:59.364Z,81.10
2017-12-29T21:27:26.962Z,81.10
2017-12-29T21:29:54.531Z,81.10
2017-12-29T21:32:22.215Z,81.20
2017-12-29T21:34:49.787Z,81.20
2017-12-29T21:37:17.401Z,81.30
2017-12-29T21:39:44.981Z,81.20
2017-12-29T21:42:12.606Z,81.00
2017-12-29T21:44:40.226Z,81.00
2017-12-29T21:47:07.844Z,80.90
2017-12-29T21:49:35.506Z,80.90
2017-12-29T21:52:03.417Z,80.90
2017-12-29T21:54:31.042Z,81.00
2017-12-29T21:56:58.736Z,80.90
2017-12-29T21:59:26.372Z,81.30
2017-12-29T22:01:53.957Z,81.20
2017-12-29T22:04:22.303Z,81.60
2017-12-29T22:06:49.909Z,81.50
2017-12-29T22:09:18.262Z,81.50
2017-12-29T22:11:45.862Z,81.60
2017-12-29T22:14:14.226Z,81.70
2017-12-29T22:16:41.896Z,81.60
2017-12-29T22:19:09.491Z,81.60
2017-12-29T22:21:37.082Z,81.70
2017-12-29T22:24:05.513Z,81.90
2017-12-29T22:26:33.466Z,81.90
2017-12-29T22:29:01.848Z,81.70
2017-12-29T22:31:29.435Z,81.70
2017-12-29T22:33:57.051Z,81.80
2017-12-29T22:36:25.406Z,81.80
2017-12-29T22:38:53.024Z,81.70
2017-12-29T22:41:20.652Z,81.80
2017-12-29T22:43:48.241Z,81.70
2017-12-29T22:46:15.847Z,81.60
2017-12-29T22:48:43.441Z,82.00
2017-12-29T22:51:11.053Z,82.00
2017-12-29T22:53:38.638Z,82.00
2017-12-29T22:56:06.209Z,82.00
2017-12-29T22:58:34.363Z,82.10
2017-12-29T23:01:01.951Z,82.30
2017-12-29T23:03:29.570Z,82.50
2017-12-29T23:05:57.163Z,82.50
2017-12-29T23:08:25.597Z,82.60
2017-12-29T23:10:53.188Z,82.60
2017-12-29T23:13:20.783Z,82.40
2017-12-29T23:15:48.398Z,82.40
2017-12-29T23:18:16.007Z,82.30
2017-12-29T23:20:43.619Z,82.50
2017-12-29T23:23:11.970Z,82.50
2017-12-29T23:25:39.588Z,82.50
2017-12-29T23:28:07.933Z,82.30
2017-12-29T23:30:35.524Z,82.30
2017-12-29T23:33:03.914Z,82.50
2017-12-29T23:35:31.495Z,82.50
2017-12-29T23:37:59.111Z,82.60
2017-12-29T23:40:26.702Z,82.70
2017-12-29T23:42:55.098Z,82.50
2017-12-29T23:45:23.449Z,82.30
2017-12-29T23:47:51.063Z,82.30
2017-12-29T23:50:18.651Z,82.30
2017-12-29T23:52:46.248Z,82.10
2017-12-29T23:55:13.867Z,82.40
2017-12-29T23:57:42.230Z,82.60
